createdAt,value
2023-02-04T00:00:16.996Z,1.30
2023-02-04T00:02:44.315Z,1.20
2023-02-04T00:05:12.605Z,1.10
2023-02-04T00:07:41.342Z,1.00
2023-02-04T00:10:10.507Z,0.90
2023-02-04T00:12:37.822Z,0.70
2023-02-04T00:15:05.607Z,0.60
2023-02-04T00:17:32.830Z,0.50
2023-02-04T00:20:00.127Z,0.40
2023-02-04T00:22:28.838Z,0.60
2023-02-04T00:24:56.111Z,0.70
2023-02-04T00:27:23.812Z,0.80
2023-02-04T00:29:51.576Z,0.80
2023-02-04T00:32:18.873Z,0.80
2023-02-04T00:34:46.066Z,0.80
2023-02-04T00:37:13.252Z,0.80
2023-02-04T00:39:40.501Z,0.90
2023-02-04T00:42:08.458Z,1.00
2023-02-04T00:44:37.005Z,1.20
2023-02-04T00:47:04.919Z,1.30
2023-02-04T00:49:33.663Z,1.30
2023-02-04T00:52:00.957Z,1.30
2023-02-04T00:54:28.497Z,1.60
2023-02-04T00:56:55.812Z,1.70
2023-02-04T00:59:22.986Z,1.80
2023-02-04T01:01:51.582Z,1.90
2023-02-04T01:04:18.883Z,1.90
2023-02-04T01:06:46.144Z,1.80
2023-02-04T01:09:13.342Z,1.70
2023-02-04T01:11:41.717Z,1.50
2023-02-04T01:14:12.828Z,1.30
2023-02-04T01:16:40.174Z,1.10
2023-02-04T01:19:07.882Z,1.00
2023-02-04T01:21:35.091Z,0.90
2023-02-04T01:24:02.293Z,0.80
2023-02-04T01:26:30.223Z,0.60
2023-02-04T01:28:57.398Z,0.60
2023-02-04T01:31:25.674Z,0.50
2023-02-04T01:33:53.535Z,0.50
2023-02-04T01:36:22.014Z,0.40
2023-02-04T01:38:49.767Z,0.30
2023-02-04T01:41:18.407Z,0.20
2023-02-04T01:43:47.026Z,0.20
2023-02-04T01:46:15.056Z,0.00
2023-02-04T01:48:42.384Z,0.00
2023-02-04T01:51:18.674Z,0.00
2023-02-04T01:53:45.850Z,0.00
2023-02-04T01:56:17.952Z,-0.10
2023-02-04T01:58:46.360Z,-0.10
2023-02-04T02:01:35.338Z,-0.20
2023-02-04T02:04:02.738Z,-0.20
2023-02-04T02:06:30.866Z,-0.30
2023-02-04T02:08:58.540Z,-0.30
2023-02-04T02:11:27.150Z,-0.40
2023-02-04T02:13:54.984Z,-0.50
2023-02-04T02:16:22.663Z,-0.40
2023-02-04T02:18:53.382Z,-0.50
2023-02-04T02:21:30.766Z,-0.40
2023-02-04T02:23:58.132Z,-0.20
2023-02-04T02:26:25.546Z,-0.10
2023-02-04T02:28:53.748Z,0.10
2023-02-04T02:31:22.554Z,0.00
2023-02-04T02:33:50.183Z,-0.10
2023-02-04T02:36:18.130Z,-0.20
2023-02-04T02:38:45.323Z,-0.20
2023-02-04T02:41:12.572Z,-0.20
2023-02-04T02:43:40.102Z,-0.30
2023-02-04T02:46:07.505Z,-0.40
2023-02-04T02:48:34.796Z,-0.30
2023-02-04T02:51:01.992Z,-0.30
2023-02-04T02:53:29.167Z,-0.30
2023-02-04T02:55:56.871Z,-0.20
2023-02-04T02:58:34.011Z,-0.20
2023-02-04T03:01:04.816Z,-0.30
2023-02-04T03:03:36.813Z,-0.30
2023-02-04T03:06:09.482Z,-0.30
2023-02-04T03:08:37.240Z,-0.20
2023-02-04T03:11:05.108Z,0.00
2023-02-04T03:13:33.957Z,0.10
2023-02-04T03:16:01.311Z,0.10
2023-02-04T03:18:30.208Z,0.10
2023-02-04T03:20:58.904Z,0.10
2023-02-04T03:23:27.275Z,0.20
2023-02-04T03:25:54.741Z,0.20
2023-02-04T03:28:22.864Z,0.30
2023-02-04T03:30:55.800Z,0.40
2023-02-04T03:33:24.387Z,0.40
2023-02-04T03:35:52.182Z,0.50
2023-02-04T03:38:20.021Z,0.50
2023-02-04T03:40:47.387Z,0.50
2023-02-04T03:43:15.156Z,0.40
2023-02-04T03:45:45.744Z,0.20
2023-02-04T03:48:13.555Z,0.00
2023-02-04T03:50:40.751Z,-0.20
2023-02-04T03:53:08.830Z,-0.40
2023-02-04T03:55:36.126Z,-0.50
2023-02-04T03:58:04.566Z,-0.70
2023-02-04T04:00:33.346Z,-0.80
2023-02-04T04:03:00.862Z,-0.90
2023-02-04T04:05:28.527Z,-1.00
2023-02-04T04:07:56.078Z,-1.10
2023-02-04T04:10:23.319Z,-1.10
2023-02-04T04:12:50.623Z,-1.10
2023-02-04T04:15:18.312Z,-1.10
2023-02-04T04:17:45.567Z,-1.10
2023-02-04T04:20:13.339Z,-1.10
2023-02-04T04:22:40.914Z,-1.20
2023-02-04T04:25:08.864Z,-1.30
2023-02-04T04:27:36.184Z,-1.40
2023-02-04T04:30:04.667Z,-1.40
2023-02-04T04:32:31.816Z,-1.60
2023-02-04T04:34:59.016Z,-1.60
2023-02-04T04:37:26.368Z,-1.50
2023-02-04T04:39:53.600Z,-1.50
2023-02-04T04:42:21.446Z,-1.40
2023-02-04T04:44:48.591Z,-1.30
2023-02-04T04:47:16.044Z,-1.20
2023-02-04T04:49:43.274Z,-0.90
2023-02-04T04:52:10.784Z,-0.60
2023-02-04T04:54:37.976Z,-0.30
2023-02-04T04:57:05.176Z,-0.20
2023-02-04T04:59:32.715Z,-0.20
2023-02-04T05:01:59.869Z,-0.10
2023-02-04T05:04:27.090Z,0.00
2023-02-04T05:06:54.248Z,0.00
2023-02-04T05:09:22.273Z,0.10
2023-02-04T05:11:49.720Z,0.10
2023-02-04T05:14:16.886Z,0.10
2023-02-04T05:16:44.144Z,0.20
2023-02-04T05:19:11.918Z,0.20
2023-02-04T05:21:39.111Z,0.10
2023-02-04T05:24:09.187Z,0.20
2023-02-04T05:26:36.398Z,0.20
2023-02-04T05:29:03.636Z,0.10
2023-02-04T05:31:31.403Z,0.20
2023-02-04T05:33:59.454Z,0.20
2023-02-04T05:36:27.517Z,0.20
2023-02-04T05:38:54.860Z,0.20
2023-02-04T05:41:22.057Z,0.20
2023-02-04T05:43:49.703Z,0.20
2023-02-04T05:46:16.860Z,0.20
2023-02-04T05:48:44.797Z,0.10
2023-02-04T05:51:12.333Z,0.10
2023-02-04T05:53:39.600Z,0.00
2023-02-04T05:56:07.529Z,0.10
2023-02-04T05:58:35.008Z,0.20
2023-02-04T06:01:03.815Z,0.20
2023-02-04T06:03:31.442Z,0.30
2023-02-04T06:05:59.146Z,0.30
2023-02-04T06:08:26.382Z,0.40
2023-02-04T06:10:54.645Z,0.30
2023-02-04T06:13:21.795Z,0.40
2023-02-04T06:15:49.661Z,0.30
2023-02-04T06:18:16.803Z,0.30
2023-02-04T06:20:43.932Z,0.30
2023-02-04T06:23:11.183Z,0.10
2023-02-04T06:25:38.982Z,-0.10
2023-02-04T06:28:06.159Z,-0.40
2023-02-04T06:30:33.753Z,-0.50
2023-02-04T06:33:01.459Z,-0.60
2023-02-04T06:35:28.710Z,-0.70
2023-02-04T06:37:55.855Z,-0.60
2023-02-04T06:40:23.164Z,-0.70
2023-02-04T06:42:50.346Z,-0.70
2023-02-04T06:45:18.200Z,-0.70
2023-02-04T06:47:45.353Z,-0.60
2023-02-04T06:50:18.440Z,-0.60
2023-02-04T06:52:47.297Z,-0.50
2023-02-04T06:55:15.834Z,-0.50
2023-02-04T06:57:43.208Z,-0.40
2023-02-04T07:00:11.843Z,-0.30
2023-02-04T07:02:39.821Z,-0.40
2023-02-04T07:05:07.191Z,-0.40
2023-02-04T07:07:34.971Z,-0.40
2023-02-04T07:10:02.535Z,-0.40
2023-02-04T07:12:30.859Z,-0.50
2023-02-04T07:14:58.178Z,-0.50
2023-02-04T07:17:25.324Z,-0.50
2023-02-04T07:19:52.966Z,-0.60
2023-02-04T07:22:20.165Z,-0.60
2023-02-04T07:24:47.308Z,-0.60
2023-02-04T07:27:14.481Z,-0.50
2023-02-04T07:29:41.644Z,-0.60
2023-02-04T07:32:08.852Z,-0.50
2023-02-04T07:34:36.427Z,-0.50
2023-02-04T07:37:05.036Z,-0.40
2023-02-04T07:39:32.181Z,-0.50
2023-02-04T07:41:59.333Z,-0.50
2023-02-04T07:44:34.416Z,-0.40
2023-02-04T07:47:01.572Z,-0.30
2023-02-04T07:49:28.950Z,-0.10
2023-02-04T07:51:57.769Z,0.10
2023-02-04T07:54:24.987Z,0.20
2023-02-04T07:56:52.233Z,0.40
2023-02-04T07:59:19.897Z,0.50
2023-02-04T08:01:48.005Z,0.60
2023-02-04T08:04:20.249Z,0.70
2023-02-04T08:06:47.584Z,0.90
2023-02-04T08:09:14.780Z,1.10
2023-02-04T08:11:41.964Z,1.50
2023-02-04T08:14:09.215Z,1.70
2023-02-04T08:16:36.484Z,2.10
2023-02-04T08:19:04.124Z,2.20
2023-02-04T08:21:31.347Z,2.00
2023-02-04T08:23:58.939Z,1.70
2023-02-04T08:26:26.113Z,1.70
2023-02-04T08:28:53.360Z,1.80
2023-02-04T08:31:20.862Z,1.80
2023-02-04T08:33:48.100Z,1.70
2023-02-04T08:36:15.273Z,1.60
2023-02-04T08:38:44.543Z,1.30
2023-02-04T08:41:12.278Z,1.30
2023-02-04T08:43:40.751Z,1.60
2023-02-04T08:46:08.162Z,2.00
2023-02-04T08:48:36.014Z,2.10
2023-02-04T08:51:03.281Z,2.40
2023-02-04T08:53:30.530Z,3.00
2023-02-04T08:55:58.309Z,4.10
2023-02-04T08:58:25.805Z,4.50
2023-02-04T09:00:53.027Z,4.40
2023-02-04T09:03:20.277Z,4.10
2023-02-04T09:05:47.678Z,4.40
2023-02-04T09:08:15.789Z,4.40
2023-02-04T09:10:43.019Z,6.00
2023-02-04T09:13:11.684Z,7.50
2023-02-04T09:15:39.496Z,9.20
2023-02-04T09:18:18.716Z,10.30
2023-02-04T09:20:46.683Z,11.00
2023-02-04T09:23:15.396Z,12.00
2023-02-04T09:25:44.495Z,12.50
2023-02-04T09:28:13.193Z,13.40
2023-02-04T09:30:41.909Z,14.20
2023-02-04T09:33:11.430Z,14.40
2023-02-04T09:35:39.255Z,14.50
2023-02-04T09:38:06.667Z,14.80
2023-02-04T09:40:38.000Z,15.90
2023-02-04T09:43:06.774Z,16.60
2023-02-04T09:45:36.149Z,17.30
2023-02-04T09:48:06.118Z,17.70
2023-02-04T09:50:34.347Z,18.40
2023-02-04T09:53:05.261Z,19.10
2023-02-04T09:55:39.168Z,19.50
2023-02-04T09:58:13.941Z,19.50
2023-02-04T10:00:41.118Z,19.70
2023-02-04T10:03:18.349Z,20.30
2023-02-04T10:05:46.761Z,20.30
2023-02-04T10:08:16.793Z,20.60
2023-02-04T10:10:47.584Z,20.90
2023-02-04T10:13:37.180Z,21.10
2023-02-04T10:16:30.091Z,21.80
2023-02-04T10:19:04.543Z,22.60
2023-02-04T10:21:36.692Z,23.40
2023-02-04T10:24:10.232Z,24.30
2023-02-04T10:26:37.572Z,23.10
2023-02-04T10:29:09.705Z,21.70
2023-02-04T10:31:40.360Z,21.30
2023-02-04T10:34:18.520Z,20.00
2023-02-04T10:36:57.656Z,19.40
2023-02-04T10:39:27.991Z,20.00
2023-02-04T10:41:57.603Z,22.30
2023-02-04T10:44:34.061Z,23.90
2023-02-04T10:47:17.781Z,24.00
2023-02-04T10:50:07.314Z,22.20
2023-02-04T10:52:44.261Z,21.00
2023-02-04T10:55:15.681Z,19.10
2023-02-04T10:57:46.246Z,17.40
2023-02-04T11:00:22.177Z,16.30
2023-02-04T11:02:55.468Z,15.90
2023-02-04T11:05:26.518Z,15.50
2023-02-04T11:07:53.962Z,16.10
2023-02-04T11:10:28.944Z,16.20
2023-02-04T11:12:56.060Z,15.00
2023-02-04T11:15:44.462Z,13.70
2023-02-04T11:18:20.956Z,13.60
2023-02-04T11:20:49.718Z,13.60
2023-02-04T11:23:32.196Z,13.30
2023-02-04T11:26:02.074Z,12.80
2023-02-04T11:28:40.852Z,12.60
2023-02-04T11:31:20.694Z,13.00
2023-02-04T11:33:49.884Z,13.30
2023-02-04T11:36:17.821Z,13.30
2023-02-04T11:38:47.188Z,13.30
2023-02-04T11:41:30.686Z,13.20
2023-02-04T11:43:58.420Z,12.90
2023-02-04T11:46:28.618Z,12.60
2023-02-04T11:48:58.086Z,12.40
2023-02-04T11:51:34.864Z,12.30
2023-02-04T11:54:02.073Z,12.00
2023-02-04T11:56:30.214Z,11.90
2023-02-04T11:58:58.600Z,12.50
2023-02-04T12:01:32.080Z,12.70
2023-02-04T12:04:02.159Z,12.80
2023-02-04T12:06:33.598Z,12.40
2023-02-04T12:09:16.150Z,11.80
2023-02-04T12:11:57.104Z,12.20
2023-02-04T12:14:33.692Z,14.50
2023-02-04T12:17:01.559Z,15.70
2023-02-04T12:19:29.373Z,14.80
2023-02-04T12:21:56.580Z,14.50
2023-02-04T12:24:23.721Z,13.90
2023-02-04T12:26:51.773Z,13.80
2023-02-04T12:29:19.012Z,14.70
2023-02-04T12:31:47.020Z,16.60
2023-02-04T12:34:14.199Z,17.30
2023-02-04T12:36:41.396Z,17.80
2023-02-04T12:39:10.357Z,18.70
2023-02-04T12:41:38.032Z,16.90
2023-02-04T12:44:05.231Z,15.00
2023-02-04T12:46:33.448Z,13.80
2023-02-04T12:49:01.238Z,13.10
2023-02-04T12:51:28.403Z,12.80
2023-02-04T12:53:55.542Z,13.90
2023-02-04T12:56:24.103Z,15.30
2023-02-04T12:58:51.713Z,16.60
2023-02-04T13:01:19.040Z,17.30
2023-02-04T13:03:46.224Z,17.60
2023-02-04T13:06:14.033Z,18.10
2023-02-04T13:08:41.188Z,18.40
2023-02-04T13:11:08.446Z,18.20
2023-02-04T13:13:35.608Z,17.70
2023-02-04T13:16:02.854Z,17.40
2023-02-04T13:18:30.504Z,17.10
2023-02-04T13:20:57.658Z,17.50
2023-02-04T13:23:25.931Z,17.90
2023-02-04T13:25:53.091Z,17.90
2023-02-04T13:28:20.811Z,17.60
2023-02-04T13:30:48.046Z,17.40
2023-02-04T13:33:16.628Z,17.80
2023-02-04T13:35:45.114Z,17.90
2023-02-04T13:38:12.844Z,17.80
2023-02-04T13:40:40.044Z,17.30
2023-02-04T13:43:07.244Z,17.30
2023-02-04T13:45:34.882Z,17.40
2023-02-04T13:48:02.358Z,17.20
2023-02-04T13:50:29.707Z,16.60
2023-02-04T13:52:57.058Z,16.00
2023-02-04T13:55:24.392Z,15.30
2023-02-04T13:57:51.900Z,14.80
2023-02-04T14:00:19.387Z,14.50
2023-02-04T14:02:48.599Z,14.10
2023-02-04T14:05:16.363Z,13.90
2023-02-04T14:07:43.983Z,13.80
2023-02-04T14:10:11.134Z,13.40
2023-02-04T14:12:38.395Z,12.90
2023-02-04T14:15:06.033Z,12.60
2023-02-04T14:17:33.888Z,12.30
2023-02-04T14:20:01.087Z,12.20
2023-02-04T14:22:29.008Z,12.10
2023-02-04T14:24:56.235Z,11.70
2023-02-04T14:27:23.491Z,11.50
2023-02-04T14:29:51.192Z,11.30
2023-02-04T14:32:18.434Z,11.10
2023-02-04T14:34:45.571Z,10.70
2023-02-04T14:37:12.908Z,10.40
2023-02-04T14:39:40.816Z,10.00
2023-02-04T14:42:08.043Z,9.60
2023-02-04T14:44:35.194Z,9.40
2023-02-04T14:47:02.369Z,9.10
2023-02-04T14:49:29.570Z,8.80
2023-02-04T14:51:57.051Z,8.50
2023-02-04T14:54:24.235Z,8.20
2023-02-04T14:56:51.490Z,7.90
2023-02-04T14:59:18.627Z,7.70
2023-02-04T15:01:46.182Z,7.40
2023-02-04T15:04:14.055Z,7.20
2023-02-04T15:06:41.849Z,7.10
2023-02-04T15:09:09.761Z,6.90
2023-02-04T15:11:37.136Z,6.80
2023-02-04T15:14:04.985Z,6.70
2023-02-04T15:16:32.310Z,6.60
2023-02-04T15:18:59.675Z,6.50
2023-02-04T15:21:27.321Z,6.50
2023-02-04T15:23:54.508Z,6.40
2023-02-04T15:26:22.382Z,6.20
2023-02-04T15:28:49.714Z,6.00
2023-02-04T15:31:17.111Z,5.90
2023-02-04T15:33:44.359Z,5.80
2023-02-04T15:36:11.541Z,5.70
2023-02-04T15:38:39.689Z,5.60
2023-02-04T15:41:07.043Z,5.50
2023-02-04T15:43:34.377Z,5.30
2023-02-04T15:46:01.571Z,5.20
2023-02-04T15:48:28.755Z,5.10
2023-02-04T15:50:56.439Z,5.00
2023-02-04T15:53:24.721Z,4.90
2023-02-04T15:55:52.082Z,4.80
2023-02-04T15:58:19.872Z,4.70
2023-02-04T16:00:47.000Z,4.50
2023-02-04T16:03:14.329Z,4.50
2023-02-04T16:05:41.473Z,4.30
2023-02-04T16:08:08.632Z,4.20
2023-02-04T16:10:36.042Z,4.10
2023-02-04T16:13:03.455Z,4.10
2023-02-04T16:15:30.960Z,3.90
2023-02-04T16:17:58.317Z,3.90
2023-02-04T16:20:25.462Z,3.80
2023-02-04T16:22:52.655Z,3.70
2023-02-04T16:25:20.404Z,3.70
2023-02-04T16:27:47.577Z,3.60
2023-02-04T16:30:16.021Z,3.60
2023-02-04T16:32:43.176Z,3.50
2023-02-04T16:35:10.474Z,3.50
2023-02-04T16:37:37.740Z,3.40
2023-02-04T16:40:06.521Z,3.40
2023-02-04T16:42:33.712Z,3.30
2023-02-04T16:45:01.241Z,3.20
2023-02-04T16:47:28.483Z,3.20
2023-02-04T16:49:59.883Z,3.20
2023-02-04T16:52:31.005Z,3.10
2023-02-04T16:54:58.764Z,3.10
2023-02-04T16:57:26.055Z,3.00
2023-02-04T16:59:53.316Z,3.10
2023-02-04T17:02:20.463Z,3.00
2023-02-04T17:04:47.860Z,3.00
2023-02-04T17:07:16.190Z,3.00
2023-02-04T17:09:43.870Z,3.00
2023-02-04T17:12:11.084Z,2.90
2023-02-04T17:14:40.921Z,2.80
2023-02-04T17:17:08.142Z,2.80
2023-02-04T17:19:35.343Z,2.80
2023-02-04T17:22:02.527Z,2.70
2023-02-04T17:24:29.793Z,2.70
2023-02-04T17:26:57.028Z,2.70
2023-02-04T17:29:24.840Z,2.70
2023-02-04T17:31:53.050Z,2.60
2023-02-04T17:34:20.291Z,2.60
2023-02-04T17:36:48.112Z,2.60
2023-02-04T17:39:15.352Z,2.50
2023-02-04T17:41:42.516Z,2.50
2023-02-04T17:44:16.809Z,2.40
2023-02-04T17:46:44.269Z,2.30
2023-02-04T17:49:11.695Z,2.30
2023-02-04T17:51:38.940Z,2.20
2023-02-04T17:54:06.586Z,2.20
2023-02-04T17:56:34.379Z,2.30
2023-02-04T17:59:01.594Z,2.20
2023-02-04T18:01:29.433Z,2.00
2023-02-04T18:03:57.940Z,1.80
2023-02-04T18:06:28.986Z,1.70
2023-02-04T18:09:01.441Z,1.60
2023-02-04T18:11:37.541Z,1.50
2023-02-04T18:14:17.787Z,1.40
2023-02-04T18:16:45.435Z,1.30
2023-02-04T18:19:21.255Z,1.20
2023-02-04T18:21:49.533Z,1.10
2023-02-04T18:24:30.507Z,1.10
2023-02-04T18:27:01.629Z,1.20
2023-02-04T18:29:34.336Z,1.40
2023-02-04T18:32:04.798Z,1.50
2023-02-04T18:34:40.919Z,1.60
2023-02-04T18:37:29.188Z,1.70
2023-02-04T18:40:25.389Z,1.80
2023-02-04T18:43:14.033Z,1.80
2023-02-04T18:45:41.347Z,1.80
2023-02-04T18:48:20.542Z,1.80
2023-02-04T18:50:49.785Z,1.80
2023-02-04T18:53:26.809Z,1.80
2023-02-04T18:55:58.968Z,1.80
2023-02-04T18:58:34.134Z,1.90
2023-02-04T19:01:02.702Z,1.90
2023-02-04T19:03:33.205Z,1.90
2023-02-04T19:06:03.267Z,1.90
2023-02-04T19:08:44.620Z,1.90
2023-02-04T19:11:36.735Z,1.90
2023-02-04T19:14:20.217Z,1.90
2023-02-04T19:16:50.892Z,1.90
2023-02-04T19:19:36.621Z,1.90
2023-02-04T19:22:41.542Z,1.90
2023-02-04T19:25:34.075Z,1.90
2023-02-04T19:28:14.192Z,1.90
2023-02-04T19:30:50.677Z,1.90
2023-02-04T19:33:25.409Z,1.90
2023-02-04T19:35:52.549Z,1.80
2023-02-04T19:38:42.823Z,1.80
2023-02-04T19:41:42.130Z,1.80
2023-02-04T19:44:12.541Z,1.80
2023-02-04T19:46:41.104Z,1.70
2023-02-04T19:49:26.549Z,1.60
2023-02-04T19:51:58.868Z,1.60
2023-02-04T19:54:38.999Z,1.50
2023-02-04T19:57:26.035Z,1.40
2023-02-04T19:59:55.978Z,1.20
2023-02-04T20:02:38.246Z,1.20
2023-02-04T20:05:24.862Z,1.10
2023-02-04T20:07:52.338Z,1.10
2023-02-04T20:10:27.904Z,1.10
2023-02-04T20:13:05.612Z,1.00
2023-02-04T20:15:33.172Z,0.90
2023-02-04T20:18:00.861Z,0.90
2023-02-04T20:20:30.406Z,0.80
2023-02-04T20:23:14.470Z,0.80
2023-02-04T20:25:49.228Z,0.80
2023-02-04T20:28:17.940Z,0.70
2023-02-04T20:30:45.983Z,0.60
2023-02-04T20:33:31.393Z,0.60
2023-02-04T20:36:26.440Z,0.50
2023-02-04T20:39:25.598Z,0.30
2023-02-04T20:41:53.156Z,0.10
2023-02-04T20:44:27.473Z,-0.10
2023-02-04T20:47:29.549Z,-0.20
2023-02-04T20:49:58.891Z,-0.30
2023-02-04T20:52:41.332Z,-0.40
2023-02-04T20:55:26.509Z,-0.50
2023-02-04T20:58:06.119Z,-0.60
2023-02-04T21:00:38.970Z,-0.50
2023-02-04T21:03:29.787Z,-0.50
2023-02-04T21:05:59.015Z,-0.70
2023-02-04T21:08:42.260Z,-0.80
2023-02-04T21:11:09.701Z,-0.90
2023-02-04T21:13:37.291Z,-0.90
2023-02-04T21:16:05.984Z,-1.00
2023-02-04T21:18:34.543Z,-1.00
2023-02-04T21:21:07.638Z,-1.00
2023-02-04T21:23:36.414Z,-1.10
2023-02-04T21:26:04.606Z,-1.20
2023-02-04T21:28:32.963Z,-1.20
2023-02-04T21:31:00.816Z,-1.30
2023-02-04T21:33:28.220Z,-1.30
2023-02-04T21:35:55.554Z,-1.20
2023-02-04T21:38:22.980Z,-1.20
2023-02-04T21:40:50.142Z,-1.20
2023-02-04T21:43:17.524Z,-1.20
2023-02-04T21:45:44.875Z,-1.30
2023-02-04T21:48:12.167Z,-1.40
2023-02-04T21:50:39.439Z,-1.30
2023-02-04T21:53:07.898Z,-1.40
2023-02-04T21:55:36.196Z,-1.40
2023-02-04T21:58:04.735Z,-1.50
2023-02-04T22:00:32.357Z,-1.50
2023-02-04T22:02:59.797Z,-1.50
2023-02-04T22:05:27.199Z,-1.50
2023-02-04T22:07:54.597Z,-1.40
2023-02-04T22:10:25.542Z,-1.40
2023-02-04T22:12:52.862Z,-1.40
2023-02-04T22:15:24.354Z,-1.50
2023-02-04T22:17:53.268Z,-1.60
2023-02-04T22:20:22.470Z,-1.50
2023-02-04T22:22:50.111Z,-1.50
2023-02-04T22:25:18.910Z,-1.50
2023-02-04T22:27:46.778Z,-1.40
2023-02-04T22:30:15.896Z,-1.50
2023-02-04T22:32:43.222Z,-1.60
2023-02-04T22:35:11.436Z,-1.60
2023-02-04T22:37:39.910Z,-1.60
2023-02-04T22:40:08.842Z,-1.70
2023-02-04T22:42:36.798Z,-1.60
2023-02-04T22:45:04.982Z,-1.50
2023-02-04T22:47:32.338Z,-1.60
2023-02-04T22:49:59.491Z,-1.70
2023-02-04T22:52:26.682Z,-1.70
2023-02-04T22:54:53.856Z,-1.70
2023-02-04T22:57:21.135Z,-1.80
2023-02-04T22:59:48.281Z,-1.70
2023-02-04T23:02:15.568Z,-1.70
2023-02-04T23:04:44.099Z,-1.50
2023-02-04T23:07:13.425Z,-1.60
2023-02-04T23:09:40.657Z,-1.50
2023-02-04T23:12:14.894Z,-1.50
2023-02-04T23:14:47.364Z,-1.50
2023-02-04T23:17:16.316Z,-1.50
2023-02-04T23:19:43.858Z,-1.50
2023-02-04T23:22:12.853Z,-1.50
2023-02-04T23:24:41.434Z,-1.60
2023-02-04T23:27:11.034Z,-1.60
2023-02-04T23:29:39.474Z,-1.50
2023-02-04T23:32:07.229Z,-1.50
2023-02-04T23:34:35.176Z,-1.60
2023-02-04T23:37:02.501Z,-1.60
2023-02-04T23:39:30.517Z,-1.60
2023-02-04T23:41:57.875Z,-1.60
2023-02-04T23:44:25.325Z,-1.60
2023-02-04T23:46:52.943Z,-1.50
2023-02-04T23:49:20.210Z,-1.60
2023-02-04T23:51:47.658Z,-1.60
2023-02-04T23:54:14.916Z,-1.60
2023-02-04T23:56:45.806Z,-1.50
2023-02-04T23:59:13.665Z,-1.60
